sensor_id;sensor_type;location;lat;lon;timestamp;P1;durP1;ratioP1;P2;durP2;ratioP2
48963;SDS011;34776;48.180;16.420;2023-02-19T00:01:05;1.30;;;1.13;;
48963;SDS011;34776;48.180;16.420;2023-02-19T00:03:36;1.30;;;1.00;;
48963;SDS011;34776;48.180;16.420;2023-02-19T00:06:05;1.65;;;0.80;;
48963;SDS011;34776;48.180;16.420;2023-02-19T00:08:33;1.13;;;1.00;;
48963;SDS011;34776;48.180;16.420;2023-02-19T00:11:02;1.05;;;0.93;;
48963;SDS011;34776;48.180;16.420;2023-02-19T00:13:29;1.27;;;1.17;;
48963;SDS011;34776;48.180;16.420;2023-02-19T00:15:55;0.95;;;0.90;;
48963;SDS011;34776;48.180;16.420;2023-02-19T00:18:22;2.47;;;1.20;;
48963;SDS011;34776;48.180;16.420;2023-02-19T00:20:49;1.08;;;0.90;;
48963;SDS011;34776;48.180;16.420;2023-02-19T00:23:14;0.80;;;0.80;;
48963;SDS011;34776;48.180;16.420;2023-02-19T00:25:39;1.10;;;1.10;;
48963;SDS011;34776;48.180;16.420;2023-02-19T00:28:05;0.90;;;0.90;;
48963;SDS011;34776;48.180;16.420;2023-02-19T00:30:30;1.13;;;0.93;;
48963;SDS011;34776;48.180;16.420;2023-02-19T00:32:55;1.02;;;0.93;;
48963;SDS011;34776;48.180;16.420;2023-02-19T00:35:21;0.75;;;0.75;;
48963;SDS011;34776;48.180;16.420;2023-02-19T00:37:47;1.33;;;1.02;;
48963;SDS011;34776;48.180;16.420;2023-02-19T00:40:12;1.08;;;1.08;;
48963;SDS011;34776;48.180;16.420;2023-02-19T00:42:38;1.20;;;1.10;;
48963;SDS011;34776;48.180;16.420;2023-02-19T00:45:03;2.22;;;1.10;;
48963;SDS011;34776;48.180;16.420;2023-02-19T00:47:29;0.90;;;0.80;;
48963;SDS011;34776;48.180;16.420;2023-02-19T00:49:54;0.73;;;0.73;;
48963;SDS011;34776;48.180;16.420;2023-02-19T00:52:19;1.60;;;1.00;;
48963;SDS011;34776;48.180;16.420;2023-02-19T00:54:45;1.20;;;1.10;;
48963;SDS011;34776;48.180;16.420;2023-02-19T00:57:10;2.38;;;1.05;;
48963;SDS011;34776;48.180;16.420;2023-02-19T00:59:35;0.98;;;0.98;;
48963;SDS011;34776;48.180;16.420;2023-02-19T01:02:01;2.67;;;1.35;;
48963;SDS011;34776;48.180;16.420;2023-02-19T01:04:27;0.90;;;0.90;;
48963;SDS011;34776;48.180;16.420;2023-02-19T01:06:52;1.40;;;1.30;;
48963;SDS011;34776;48.180;16.420;2023-02-19T01:09:17;1.00;;;1.00;;
48963;SDS011;34776;48.180;16.420;2023-02-19T01:11:43;1.38;;;1.10;;
48963;SDS011;34776;48.180;16.420;2023-02-19T01:14:08;1.27;;;1.17;;
48963;SDS011;34776;48.180;16.420;2023-02-19T01:16:34;1.23;;;1.13;;
48963;SDS011;34776;48.180;16.420;2023-02-19T01:19:00;1.05;;;1.00;;
48963;SDS011;34776;48.180;16.420;2023-02-19T01:21:26;1.38;;;1.27;;
48963;SDS011;34776;48.180;16.420;2023-02-19T01:23:52;1.40;;;1.25;;
48963;SDS011;34776;48.180;16.420;2023-02-19T01:26:37;1.25;;;1.13;;
48963;SDS011;34776;48.180;16.420;2023-02-19T01:29:02;1.40;;;1.08;;
48963;SDS011;34776;48.180;16.420;2023-02-19T01:31:28;1.50;;;1.17;;
48963;SDS011;34776;48.180;16.420;2023-02-19T01:33:54;1.33;;;1.10;;
48963;SDS011;34776;48.180;16.420;2023-02-19T01:36:21;3.60;;;1.42;;
48963;SDS011;34776;48.180;16.420;2023-02-19T01:38:47;1.45;;;1.10;;
48963;SDS011;34776;48.180;16.420;2023-02-19T01:41:15;1.60;;;1.08;;
48963;SDS011;34776;48.180;16.420;2023-02-19T01:43:56;0.90;;;0.90;;
48963;SDS011;34776;48.180;16.420;2023-02-19T01:46:25;1.25;;;1.15;;
48963;SDS011;34776;48.180;16.420;2023-02-19T01:51:49;2.08;;;1.40;;
48963;SDS011;34776;48.180;16.420;2023-02-19T01:54:24;1.13;;;0.93;;
48963;SDS011;34776;48.180;16.420;2023-02-19T01:56:52;1.50;;;1.30;;
48963;SDS011;34776;48.180;16.420;2023-02-19T01:59:19;2.10;;;1.20;;
48963;SDS011;34776;48.180;16.420;2023-02-19T02:01:45;1.85;;;1.75;;
48963;SDS011;34776;48.180;16.420;2023-02-19T02:04:11;1.23;;;1.10;;
48963;SDS011;34776;48.180;16.420;2023-02-19T02:09:21;0.82;;;0.82;;
48963;SDS011;34776;48.180;16.420;2023-02-19T02:12:09;1.33;;;1.05;;
48963;SDS011;34776;48.180;16.420;2023-02-19T02:14:35;1.17;;;1.00;;
48963;SDS011;34776;48.180;16.420;2023-02-19T02:17:22;1.33;;;1.02;;
48963;SDS011;34776;48.180;16.420;2023-02-19T02:22:36;1.33;;;1.23;;
48963;SDS011;34776;48.180;16.420;2023-02-19T02:33:15;0.98;;;0.98;;
48963;SDS011;34776;48.180;16.420;2023-02-19T02:35:46;1.30;;;1.08;;
48963;SDS011;34776;48.180;16.420;2023-02-19T02:38:15;1.40;;;1.30;;
48963;SDS011;34776;48.180;16.420;2023-02-19T02:40:44;1.90;;;1.30;;
48963;SDS011;34776;48.180;16.420;2023-02-19T02:43:11;3.67;;;1.50;;
48963;SDS011;34776;48.180;16.420;2023-02-19T02:45:37;1.38;;;1.20;;
48963;SDS011;34776;48.180;16.420;2023-02-19T02:53:52;2.55;;;1.50;;
48963;SDS011;34776;48.180;16.420;2023-02-19T02:56:39;1.77;;;1.65;;
48963;SDS011;34776;48.180;16.420;2023-02-19T02:59:08;1.48;;;1.38;;
48963;SDS011;34776;48.180;16.420;2023-02-19T03:10:59;1.75;;;1.65;;
48963;SDS011;34776;48.180;16.420;2023-02-19T03:13:19;3.60;;;1.85;;
48963;SDS011;34776;48.180;16.420;2023-02-19T03:16:09;4.40;;;4.00;;
48963;SDS011;34776;48.180;16.420;2023-02-19T03:18:58;2.72;;;2.50;;
48963;SDS011;34776;48.180;16.420;2023-02-19T03:21:44;3.97;;;2.28;;
48963;SDS011;34776;48.180;16.420;2023-02-19T03:24:15;2.55;;;1.98;;
48963;SDS011;34776;48.180;16.420;2023-02-19T03:27:04;2.35;;;2.08;;
48963;SDS011;34776;48.180;16.420;2023-02-19T03:29:34;2.40;;;2.20;;
48963;SDS011;34776;48.180;16.420;2023-02-19T03:32:03;2.67;;;2.08;;
48963;SDS011;34776;48.180;16.420;2023-02-19T03:34:37;2.33;;;2.13;;
48963;SDS011;34776;48.180;16.420;2023-02-19T03:37:12;3.15;;;2.35;;
48963;SDS011;34776;48.180;16.420;2023-02-19T03:39:42;2.00;;;1.80;;
48963;SDS011;34776;48.180;16.420;2023-02-19T03:44:52;2.20;;;1.90;;
48963;SDS011;34776;48.180;16.420;2023-02-19T03:47:42;3.38;;;2.08;;
48963;SDS011;34776;48.180;16.420;2023-02-19T03:52:57;1.88;;;1.70;;
48963;SDS011;34776;48.180;16.420;2023-02-19T03:55:33;3.97;;;2.00;;
48963;SDS011;34776;48.180;16.420;2023-02-19T03:58:25;2.22;;;1.90;;
48963;SDS011;34776;48.180;16.420;2023-02-19T04:03:44;2.05;;;1.85;;
48963;SDS011;34776;48.180;16.420;2023-02-19T04:06:16;1.92;;;1.83;;
48963;SDS011;34776;48.180;16.420;2023-02-19T04:08:47;2.15;;;1.95;;
48963;SDS011;34776;48.180;16.420;2023-02-19T04:11:16;1.80;;;1.70;;
48963;SDS011;34776;48.180;16.420;2023-02-19T04:13:49;1.90;;;1.80;;
48963;SDS011;34776;48.180;16.420;2023-02-19T04:16:23;1.90;;;1.80;;
48963;SDS011;34776;48.180;16.420;2023-02-19T04:18:53;4.53;;;3.70;;
48963;SDS011;34776;48.180;16.420;2023-02-19T04:21:23;2.65;;;2.45;;
48963;SDS011;34776;48.180;16.420;2023-02-19T04:23:49;2.20;;;2.10;;
48963;SDS011;34776;48.180;16.420;2023-02-19T04:26:15;2.10;;;2.00;;
48963;SDS011;34776;48.180;16.420;2023-02-19T04:28:44;2.90;;;2.15;;
48963;SDS011;34776;48.180;16.420;2023-02-19T04:31:10;2.10;;;1.90;;
48963;SDS011;34776;48.180;16.420;2023-02-19T04:33:36;2.40;;;1.95;;
48963;SDS011;34776;48.180;16.420;2023-02-19T04:36:01;2.30;;;2.13;;
48963;SDS011;34776;48.180;16.420;2023-02-19T04:38:26;2.90;;;2.20;;
48963;SDS011;34776;48.180;16.420;2023-02-19T04:40:52;2.45;;;2.25;;
48963;SDS011;34776;48.180;16.420;2023-02-19T04:43:17;2.40;;;2.20;;
48963;SDS011;34776;48.180;16.420;2023-02-19T04:45:43;3.53;;;2.42;;
48963;SDS011;34776;48.180;16.420;2023-02-19T04:48:08;2.30;;;2.10;;
48963;SDS011;34776;48.180;16.420;2023-02-19T04:50:36;2.42;;;2.22;;
48963;SDS011;34776;48.180;16.420;2023-02-19T04:53:02;2.63;;;2.20;;
48963;SDS011;34776;48.180;16.420;2023-02-19T04:55:27;2.40;;;2.20;;
48963;SDS011;34776;48.180;16.420;2023-02-19T04:57:53;3.25;;;1.90;;
48963;SDS011;34776;48.180;16.420;2023-02-19T05:00:18;2.92;;;2.72;;
48963;SDS011;34776;48.180;16.420;2023-02-19T05:02:44;3.00;;;2.65;;
48963;SDS011;34776;48.180;16.420;2023-02-19T05:05:09;3.10;;;2.80;;
48963;SDS011;34776;48.180;16.420;2023-02-19T05:07:34;2.75;;;2.53;;
48963;SDS011;34776;48.180;16.420;2023-02-19T05:10:00;2.75;;;2.55;;
48963;SDS011;34776;48.180;16.420;2023-02-19T05:12:25;3.10;;;2.80;;
48963;SDS011;34776;48.180;16.420;2023-02-19T05:14:50;3.00;;;2.70;;
48963;SDS011;34776;48.180;16.420;2023-02-19T05:17:16;3.85;;;2.90;;
48963;SDS011;34776;48.180;16.420;2023-02-19T05:19:41;2.80;;;2.60;;
48963;SDS011;34776;48.180;16.420;2023-02-19T05:22:07;2.67;;;2.47;;
48963;SDS011;34776;48.180;16.420;2023-02-19T05:24:32;3.17;;;2.88;;
48963;SDS011;34776;48.180;16.420;2023-02-19T05:26:57;3.85;;;3.33;;
48963;SDS011;34776;48.180;16.420;2023-02-19T05:29:23;4.80;;;2.70;;
48963;SDS011;34776;48.180;16.420;2023-02-19T05:31:48;2.70;;;2.50;;
48963;SDS011;34776;48.180;16.420;2023-02-19T05:34:13;2.63;;;2.42;;
48963;SDS011;34776;48.180;16.420;2023-02-19T05:36:39;3.08;;;2.83;;
48963;SDS011;34776;48.180;16.420;2023-02-19T05:39:05;2.90;;;2.70;;
48963;SDS011;34776;48.180;16.420;2023-02-19T05:41:31;2.70;;;2.50;;
48963;SDS011;34776;48.180;16.420;2023-02-19T05:43:57;3.33;;;2.80;;
48963;SDS011;34776;48.180;16.420;2023-02-19T05:46:23;2.78;;;2.47;;
48963;SDS011;34776;48.180;16.420;2023-02-19T05:48:51;3.13;;;2.83;;
48963;SDS011;34776;48.180;16.420;2023-02-19T05:51:18;3.22;;;2.70;;
48963;SDS011;34776;48.180;16.420;2023-02-19T05:53:45;2.95;;;2.35;;
48963;SDS011;34776;48.180;16.420;2023-02-19T05:58:57;5.95;;;5.20;;
48963;SDS011;34776;48.180;16.420;2023-02-19T06:01:24;15.95;;;12.68;;
48963;SDS011;34776;48.180;16.420;2023-02-19T06:03:51;4.85;;;4.35;;
48963;SDS011;34776;48.180;16.420;2023-02-19T06:06:17;3.92;;;3.50;;
48963;SDS011;34776;48.180;16.420;2023-02-19T06:08:43;4.72;;;2.90;;
48963;SDS011;34776;48.180;16.420;2023-02-19T06:11:08;3.70;;;2.90;;
48963;SDS011;34776;48.180;16.420;2023-02-19T06:13:34;2.55;;;2.35;;
48963;SDS011;34776;48.180;16.420;2023-02-19T06:16:02;2.83;;;2.53;;
48963;SDS011;34776;48.180;16.420;2023-02-19T06:18:28;3.58;;;3.25;;
48963;SDS011;34776;48.180;16.420;2023-02-19T06:20:54;2.88;;;2.67;;
48963;SDS011;34776;48.180;16.420;2023-02-19T06:23:26;2.92;;;2.45;;
48963;SDS011;34776;48.180;16.420;2023-02-19T06:25:52;3.13;;;2.42;;
48963;SDS011;34776;48.180;16.420;2023-02-19T06:28:17;2.50;;;2.15;;
48963;SDS011;34776;48.180;16.420;2023-02-19T06:30:43;2.40;;;2.20;;
48963;SDS011;34776;48.180;16.420;2023-02-19T06:33:08;3.67;;;2.40;;
48963;SDS011;34776;48.180;16.420;2023-02-19T06:35:33;2.78;;;2.25;;
48963;SDS011;34776;48.180;16.420;2023-02-19T06:38:00;3.20;;;2.42;;
48963;SDS011;34776;48.180;16.420;2023-02-19T06:40:25;2.33;;;2.13;;
48963;SDS011;34776;48.180;16.420;2023-02-19T06:42:51;3.03;;;2.30;;
48963;SDS011;34776;48.180;16.420;2023-02-19T06:45:16;2.30;;;2.05;;
48963;SDS011;34776;48.180;16.420;2023-02-19T06:47:41;2.20;;;2.00;;
48963;SDS011;34776;48.180;16.420;2023-02-19T06:50:07;3.45;;;2.35;;
48963;SDS011;34776;48.180;16.420;2023-02-19T06:52:32;3.65;;;2.00;;
48963;SDS011;34776;48.180;16.420;2023-02-19T06:54:58;3.50;;;2.10;;
48963;SDS011;34776;48.180;16.420;2023-02-19T06:57:23;2.22;;;2.03;;
48963;SDS011;34776;48.180;16.420;2023-02-19T06:59:48;3.88;;;2.70;;
48963;SDS011;34776;48.180;16.420;2023-02-19T07:02:14;2.92;;;2.30;;
48963;SDS011;34776;48.180;16.420;2023-02-19T07:04:39;3.45;;;2.45;;
48963;SDS011;34776;48.180;16.420;2023-02-19T07:07:04;2.45;;;2.25;;
48963;SDS011;34776;48.180;16.420;2023-02-19T07:09:30;2.20;;;2.00;;
48963;SDS011;34776;48.180;16.420;2023-02-19T07:11:56;2.63;;;2.20;;
48963;SDS011;34776;48.180;16.420;2023-02-19T07:14:21;4.05;;;2.45;;
48963;SDS011;34776;48.180;16.420;2023-02-19T07:16:47;3.47;;;2.30;;
48963;SDS011;34776;48.180;16.420;2023-02-19T07:19:13;2.60;;;2.10;;
48963;SDS011;34776;48.180;16.420;2023-02-19T07:21:39;1.98;;;1.85;;
48963;SDS011;34776;48.180;16.420;2023-02-19T07:24:06;2.58;;;2.17;;
48963;SDS011;34776;48.180;16.420;2023-02-19T07:29:21;2.63;;;1.88;;
48963;SDS011;34776;48.180;16.420;2023-02-19T07:31:46;2.88;;;1.67;;
48963;SDS011;34776;48.180;16.420;2023-02-19T07:56:07;1.70;;;1.42;;
48963;SDS011;34776;48.180;16.420;2023-02-19T08:01:11;2.67;;;1.48;;
48963;SDS011;34776;48.180;16.420;2023-02-19T08:03:40;1.10;;;1.00;;
48963;SDS011;34776;48.180;16.420;2023-02-19T08:06:06;1.55;;;1.15;;
48963;SDS011;34776;48.180;16.420;2023-02-19T08:08:32;1.40;;;1.20;;
48963;SDS011;34776;48.180;16.420;2023-02-19T08:10:58;1.77;;;1.15;;
48963;SDS011;34776;48.180;16.420;2023-02-19T08:13:36;3.65;;;1.30;;
48963;SDS011;34776;48.180;16.420;2023-02-19T08:18:28;1.60;;;1.10;;
48963;SDS011;34776;48.180;16.420;2023-02-19T08:20:55;1.95;;;1.08;;
48963;SDS011;34776;48.180;16.420;2023-02-19T08:23:22;1.25;;;1.08;;
48963;SDS011;34776;48.180;16.420;2023-02-19T08:25:48;1.92;;;1.48;;
48963;SDS011;34776;48.180;16.420;2023-02-19T08:28:15;2.58;;;2.38;;
48963;SDS011;34776;48.180;16.420;2023-02-19T08:30:41;1.58;;;1.45;;
48963;SDS011;34776;48.180;16.420;2023-02-19T08:33:09;3.05;;;1.50;;
48963;SDS011;34776;48.180;16.420;2023-02-19T08:56:15;1.60;;;1.10;;
48963;SDS011;34776;48.180;16.420;2023-02-19T08:58:41;1.63;;;1.33;;
48963;SDS011;34776;48.180;16.420;2023-02-19T09:01:10;1.88;;;1.45;;
48963;SDS011;34776;48.180;16.420;2023-02-19T09:30:35;1.77;;;1.60;;
48963;SDS011;34776;48.180;16.420;2023-02-19T09:33:00;1.55;;;1.25;;
48963;SDS011;34776;48.180;16.420;2023-02-19T09:35:25;3.08;;;2.28;;
48963;SDS011;34776;48.180;16.420;2023-02-19T09:37:51;2.38;;;2.10;;
48963;SDS011;34776;48.180;16.420;2023-02-19T09:40:16;7.88;;;3.20;;
48963;SDS011;34776;48.180;16.420;2023-02-19T09:42:45;1.30;;;1.20;;
48963;SDS011;34776;48.180;16.420;2023-02-19T09:45:15;2.30;;;1.10;;
48963;SDS011;34776;48.180;16.420;2023-02-19T09:47:47;1.00;;;1.00;;
48963;SDS011;34776;48.180;16.420;2023-02-19T09:50:15;2.80;;;1.20;;
48963;SDS011;34776;48.180;16.420;2023-02-19T09:52:48;1.42;;;1.23;;
48963;SDS011;34776;48.180;16.420;2023-02-19T09:58:28;1.83;;;1.10;;
48963;SDS011;34776;48.180;16.420;2023-02-19T10:00:57;1.00;;;0.90;;
48963;SDS011;34776;48.180;16.420;2023-02-19T10:03:30;1.40;;;1.10;;
48963;SDS011;34776;48.180;16.420;2023-02-19T10:05:58;1.35;;;0.90;;
48963;SDS011;34776;48.180;16.420;2023-02-19T10:08:32;1.50;;;1.38;;
48963;SDS011;34776;48.180;16.420;2023-02-19T10:10:59;1.48;;;0.98;;
48963;SDS011;34776;48.180;16.420;2023-02-19T10:13:28;5.65;;;1.20;;
48963;SDS011;34776;48.180;16.420;2023-02-19T10:15:57;1.30;;;1.15;;
48963;SDS011;34776;48.180;16.420;2023-02-19T10:18:26;1.25;;;1.13;;
48963;SDS011;34776;48.180;16.420;2023-02-19T10:20:55;1.10;;;1.05;;
48963;SDS011;34776;48.180;16.420;2023-02-19T10:23:21;1.50;;;1.10;;
48963;SDS011;34776;48.180;16.420;2023-02-19T10:25:49;1.77;;;1.02;;
48963;SDS011;34776;48.180;16.420;2023-02-19T10:28:22;4.53;;;2.67;;
48963;SDS011;34776;48.180;16.420;2023-02-19T10:30:52;7.20;;;4.75;;
48963;SDS011;34776;48.180;16.420;2023-02-19T10:33:18;4.35;;;3.28;;
48963;SDS011;34776;48.180;16.420;2023-02-19T10:35:58;2.38;;;1.77;;
48963;SDS011;34776;48.180;16.420;2023-02-19T10:40:56;3.70;;;2.95;;
48963;SDS011;34776;48.180;16.420;2023-02-19T10:43:25;2.28;;;1.50;;
48963;SDS011;34776;48.180;16.420;2023-02-19T10:45:58;1.50;;;1.25;;
48963;SDS011;34776;48.180;16.420;2023-02-19T10:48:28;2.25;;;1.02;;
48963;SDS011;34776;48.180;16.420;2023-02-19T10:51:15;2.05;;;1.38;;
48963;SDS011;34776;48.180;16.420;2023-02-19T10:53:46;1.45;;;1.27;;
48963;SDS011;34776;48.180;16.420;2023-02-19T10:56:23;3.65;;;2.22;;
48963;SDS011;34776;48.180;16.420;2023-02-19T10:58:50;3.58;;;1.60;;
48963;SDS011;34776;48.180;16.420;2023-02-19T11:01:20;1.60;;;1.00;;
48963;SDS011;34776;48.180;16.420;2023-02-19T11:03:51;1.20;;;1.08;;
48963;SDS011;34776;48.180;16.420;2023-02-19T11:23:05;3.42;;;1.15;;
48963;SDS011;34776;48.180;16.420;2023-02-19T11:25:43;1.10;;;1.00;;
48963;SDS011;34776;48.180;16.420;2023-02-19T11:30:54;1.20;;;1.10;;
48963;SDS011;34776;48.180;16.420;2023-02-19T11:33:46;0.93;;;0.93;;
48963;SDS011;34776;48.180;16.420;2023-02-19T12:03:11;1.60;;;1.20;;
48963;SDS011;34776;48.180;16.420;2023-02-19T12:05:47;1.45;;;1.17;;
48963;SDS011;34776;48.180;16.420;2023-02-19T12:16:53;3.63;;;1.20;;
48963;SDS011;34776;48.180;16.420;2023-02-19T12:52:49;1.60;;;1.30;;
48963;SDS011;34776;48.180;16.420;2023-02-19T12:55:21;4.13;;;1.10;;
48963;SDS011;34776;48.180;16.420;2023-02-19T12:57:47;1.35;;;0.98;;
48963;SDS011;34776;48.180;16.420;2023-02-19T13:00:34;1.70;;;1.00;;
48963;SDS011;34776;48.180;16.420;2023-02-19T13:17:44;2.20;;;0.90;;
48963;SDS011;34776;48.180;16.420;2023-02-19T13:22:45;3.30;;;1.27;;
48963;SDS011;34776;48.180;16.420;2023-02-19T13:25:41;1.23;;;1.13;;
48963;SDS011;34776;48.180;16.420;2023-02-19T13:28:25;2.78;;;1.23;;
48963;SDS011;34776;48.180;16.420;2023-02-19T13:36:46;1.30;;;1.20;;
48963;SDS011;34776;48.180;16.420;2023-02-19T13:39:13;3.45;;;2.03;;
48963;SDS011;34776;48.180;16.420;2023-02-19T13:41:40;1.50;;;1.00;;
48963;SDS011;34776;48.180;16.420;2023-02-19T13:44:16;1.42;;;0.80;;
48963;SDS011;34776;48.180;16.420;2023-02-19T13:46:45;1.20;;;0.98;;
48963;SDS011;34776;48.180;16.420;2023-02-19T13:51:56;1.10;;;1.00;;
48963;SDS011;34776;48.180;16.420;2023-02-19T13:54:23;0.70;;;0.70;;
48963;SDS011;34776;48.180;16.420;2023-02-19T14:05:05;1.27;;;1.17;;
48963;SDS011;34776;48.180;16.420;2023-02-19T14:17:01;1.77;;;1.42;;
48963;SDS011;34776;48.180;16.420;2023-02-19T14:19:02;1.42;;;1.30;;
48963;SDS011;34776;48.180;16.420;2023-02-19T14:21:35;2.38;;;1.20;;
48963;SDS011;34776;48.180;16.420;2023-02-19T14:24:02;2.28;;;1.25;;
48963;SDS011;34776;48.180;16.420;2023-02-19T14:26:29;1.40;;;1.17;;
48963;SDS011;34776;48.180;16.420;2023-02-19T14:29:18;1.02;;;1.02;;
48963;SDS011;34776;48.180;16.420;2023-02-19T14:32:05;1.50;;;1.40;;
48963;SDS011;34776;48.180;16.420;2023-02-19T14:34:30;1.42;;;1.13;;
48963;SDS011;34776;48.180;16.420;2023-02-19T14:36:57;1.65;;;1.55;;
48963;SDS011;34776;48.180;16.420;2023-02-19T14:39:29;1.55;;;1.25;;
48963;SDS011;34776;48.180;16.420;2023-02-19T14:47:20;1.85;;;1.48;;
48963;SDS011;34776;48.180;16.420;2023-02-19T14:49:56;1.13;;;1.00;;
48963;SDS011;34776;48.180;16.420;2023-02-19T14:52:26;3.17;;;1.95;;
48963;SDS011;34776;48.180;16.420;2023-02-19T14:55:08;2.40;;;1.40;;
48963;SDS011;34776;48.180;16.420;2023-02-19T14:57:43;2.42;;;1.40;;
48963;SDS011;34776;48.180;16.420;2023-02-19T15:02:48;3.13;;;1.80;;
48963;SDS011;34776;48.180;16.420;2023-02-19T15:05:22;3.92;;;1.75;;
48963;SDS011;34776;48.180;16.420;2023-02-19T15:07:50;4.45;;;1.75;;
48963;SDS011;34776;48.180;16.420;2023-02-19T15:10:18;2.10;;;1.30;;
48963;SDS011;34776;48.180;16.420;2023-02-19T15:12:45;3.60;;;1.90;;
48963;SDS011;34776;48.180;16.420;2023-02-19T15:15:16;5.07;;;1.65;;
48963;SDS011;34776;48.180;16.420;2023-02-19T15:17:45;3.00;;;1.48;;
48963;SDS011;34776;48.180;16.420;2023-02-19T15:20:11;4.30;;;3.55;;
48963;SDS011;34776;48.180;16.420;2023-02-19T15:22:43;5.30;;;3.22;;
48963;SDS011;34776;48.180;16.420;2023-02-19T15:25:17;3.75;;;2.00;;
48963;SDS011;34776;48.180;16.420;2023-02-19T15:27:45;3.10;;;1.50;;
48963;SDS011;34776;48.180;16.420;2023-02-19T15:30:24;3.30;;;1.48;;
48963;SDS011;34776;48.180;16.420;2023-02-19T15:32:54;4.25;;;1.50;;
48963;SDS011;34776;48.180;16.420;2023-02-19T15:35:22;5.05;;;1.67;;
48963;SDS011;34776;48.180;16.420;2023-02-19T15:37:49;2.35;;;1.50;;
48963;SDS011;34776;48.180;16.420;2023-02-19T15:40:15;2.22;;;1.58;;
48963;SDS011;34776;48.180;16.420;2023-02-19T15:42:43;2.75;;;1.73;;
48963;SDS011;34776;48.180;16.420;2023-02-19T15:47:59;4.35;;;1.67;;
48963;SDS011;34776;48.180;16.420;2023-02-19T15:50:40;2.72;;;1.65;;
48963;SDS011;34776;48.180;16.420;2023-02-19T15:53:13;2.30;;;1.35;;
48963;SDS011;34776;48.180;16.420;2023-02-19T15:58:42;1.35;;;0.80;;
48963;SDS011;34776;48.180;16.420;2023-02-19T16:01:18;1.60;;;0.95;;
48963;SDS011;34776;48.180;16.420;2023-02-19T16:03:49;1.17;;;1.00;;
48963;SDS011;34776;48.180;16.420;2023-02-19T16:06:16;1.45;;;0.90;;
48963;SDS011;34776;48.180;16.420;2023-02-19T16:09:03;2.25;;;1.17;;
48963;SDS011;34776;48.180;16.420;2023-02-19T16:11:40;3.20;;;0.93;;
48963;SDS011;34776;48.180;16.420;2023-02-19T16:16:52;1.98;;;0.90;;
48963;SDS011;34776;48.180;16.420;2023-02-19T16:19:23;0.88;;;0.88;;
48963;SDS011;34776;48.180;16.420;2023-02-19T16:21:51;0.88;;;0.82;;
48963;SDS011;34776;48.180;16.420;2023-02-19T16:24:39;1.08;;;0.98;;
48963;SDS011;34776;48.180;16.420;2023-02-19T16:27:09;1.98;;;1.08;;
48963;SDS011;34776;48.180;16.420;2023-02-19T16:29:36;0.98;;;0.90;;
48963;SDS011;34776;48.180;16.420;2023-02-19T16:32:03;1.23;;;1.00;;
48963;SDS011;34776;48.180;16.420;2023-02-19T16:34:38;1.20;;;1.10;;
48963;SDS011;34776;48.180;16.420;2023-02-19T16:39:53;1.17;;;1.08;;
48963;SDS011;34776;48.180;16.420;2023-02-19T16:42:33;0.93;;;0.82;;
48963;SDS011;34776;48.180;16.420;2023-02-19T16:44:58;9.18;;;4.45;;
48963;SDS011;34776;48.180;16.420;2023-02-19T16:47:25;2.95;;;1.77;;
48963;SDS011;34776;48.180;16.420;2023-02-19T16:49:53;2.65;;;1.27;;
48963;SDS011;34776;48.180;16.420;2023-02-19T16:52:19;1.45;;;1.27;;
48963;SDS011;34776;48.180;16.420;2023-02-19T16:54:46;1.90;;;1.60;;
48963;SDS011;34776;48.180;16.420;2023-02-19T16:57:12;4.50;;;1.42;;
48963;SDS011;34776;48.180;16.420;2023-02-19T16:59:37;1.30;;;1.20;;
48963;SDS011;34776;48.180;16.420;2023-02-19T17:02:04;3.72;;;1.90;;
48963;SDS011;34776;48.180;16.420;2023-02-19T17:04:30;1.80;;;1.50;;
48963;SDS011;34776;48.180;16.420;2023-02-19T17:06:55;1.35;;;1.20;;
48963;SDS011;34776;48.180;16.420;2023-02-19T17:09:21;1.60;;;0.98;;
48963;SDS011;34776;48.180;16.420;2023-02-19T17:11:46;1.15;;;1.05;;
48963;SDS011;34776;48.180;16.420;2023-02-19T17:14:11;2.58;;;1.10;;
48963;SDS011;34776;48.180;16.420;2023-02-19T17:16:37;1.08;;;0.90;;
48963;SDS011;34776;48.180;16.420;2023-02-19T17:19:12;1.33;;;1.17;;
48963;SDS011;34776;48.180;16.420;2023-02-19T17:21:40;1.30;;;1.20;;
48963;SDS011;34776;48.180;16.420;2023-02-19T17:24:06;1.40;;;1.27;;
48963;SDS011;34776;48.180;16.420;2023-02-19T17:26:32;1.45;;;1.02;;
48963;SDS011;34776;48.180;16.420;2023-02-19T17:28:58;1.27;;;1.00;;
48963;SDS011;34776;48.180;16.420;2023-02-19T17:31:24;1.23;;;1.13;;
48963;SDS011;34776;48.180;16.420;2023-02-19T17:33:49;1.33;;;1.17;;
48963;SDS011;34776;48.180;16.420;2023-02-19T17:36:36;2.25;;;1.35;;
48963;SDS011;34776;48.180;16.420;2023-02-19T17:39:08;1.98;;;1.40;;
48963;SDS011;34776;48.180;16.420;2023-02-19T17:41:39;1.33;;;1.20;;
48963;SDS011;34776;48.180;16.420;2023-02-19T17:44:04;1.77;;;1.40;;
48963;SDS011;34776;48.180;16.420;2023-02-19T17:46:30;5.65;;;1.77;;
48963;SDS011;34776;48.180;16.420;2023-02-19T17:48:55;1.27;;;1.17;;
48963;SDS011;34776;48.180;16.420;2023-02-19T17:51:21;1.27;;;1.17;;
48963;SDS011;34776;48.180;16.420;2023-02-19T17:53:46;1.60;;;1.50;;
48963;SDS011;34776;48.180;16.420;2023-02-19T17:56:15;1.40;;;1.17;;
48963;SDS011;34776;48.180;16.420;2023-02-19T17:58:45;1.20;;;1.10;;
48963;SDS011;34776;48.180;16.420;2023-02-19T18:01:11;1.45;;;1.35;;
48963;SDS011;34776;48.180;16.420;2023-02-19T18:03:36;1.23;;;1.13;;
48963;SDS011;34776;48.180;16.420;2023-02-19T18:06:02;1.80;;;1.30;;
48963;SDS011;34776;48.180;16.420;2023-02-19T18:08:28;1.88;;;1.35;;
48963;SDS011;34776;48.180;16.420;2023-02-19T18:10:53;2.78;;;1.60;;
48963;SDS011;34776;48.180;16.420;2023-02-19T18:13:19;3.97;;;3.58;;
48963;SDS011;34776;48.180;16.420;2023-02-19T18:15:44;2.45;;;2.25;;
48963;SDS011;34776;48.180;16.420;2023-02-19T18:18:09;2.45;;;1.60;;
48963;SDS011;34776;48.180;16.420;2023-02-19T18:20:35;2.13;;;1.58;;
48963;SDS011;34776;48.180;16.420;2023-02-19T18:23:01;1.67;;;1.50;;
48963;SDS011;34776;48.180;16.420;2023-02-19T18:25:26;1.65;;;1.42;;
48963;SDS011;34776;48.180;16.420;2023-02-19T18:27:52;1.70;;;1.60;;
48963;SDS011;34776;48.180;16.420;2023-02-19T18:30:18;3.53;;;1.45;;
48963;SDS011;34776;48.180;16.420;2023-02-19T18:59:14;2.55;;;2.10;;
48963;SDS011;34776;48.180;16.420;2023-02-19T19:01:40;2.05;;;1.70;;
48963;SDS011;34776;48.180;16.420;2023-02-19T19:04:05;1.73;;;1.63;;
48963;SDS011;34776;48.180;16.420;2023-02-19T19:06:31;1.55;;;1.42;;
48963;SDS011;34776;48.180;16.420;2023-02-19T19:08:56;1.40;;;1.30;;
48963;SDS011;34776;48.180;16.420;2023-02-19T19:11:24;2.15;;;1.60;;
48963;SDS011;34776;48.180;16.420;2023-02-19T19:13:50;1.60;;;1.50;;
48963;SDS011;34776;48.180;16.420;2023-02-19T19:16:15;2.38;;;1.60;;
48963;SDS011;34776;48.180;16.420;2023-02-19T19:18:41;1.35;;;1.23;;
48963;SDS011;34776;48.180;16.420;2023-02-19T19:21:06;2.17;;;1.83;;
48963;SDS011;34776;48.180;16.420;2023-02-19T19:23:33;2.75;;;2.15;;
48963;SDS011;34776;48.180;16.420;2023-02-19T19:25:59;2.10;;;1.70;;
48963;SDS011;34776;48.180;16.420;2023-02-19T19:28:24;1.73;;;1.63;;
48963;SDS011;34776;48.180;16.420;2023-02-19T19:30:50;1.80;;;1.50;;
48963;SDS011;34776;48.180;16.420;2023-02-19T19:33:15;2.95;;;1.42;;
48963;SDS011;34776;48.180;16.420;2023-02-19T19:35:41;1.73;;;1.38;;
48963;SDS011;34776;48.180;16.420;2023-02-19T19:38:06;1.70;;;1.60;;
48963;SDS011;34776;48.180;16.420;2023-02-19T19:40:31;1.60;;;1.50;;
48963;SDS011;34776;48.180;16.420;2023-02-19T19:42:57;1.58;;;1.35;;
48963;SDS011;34776;48.180;16.420;2023-02-19T19:45:22;2.95;;;1.98;;